Time;durP1;ratioP1;P1;durP2;ratioP2;P2;SDS_P1;SDS_P2;PMS_P1;PMS_P2;Temp;Humidity;BMP_temperature;BMP_pressure;BME280_temperature;BME280_humidity;BME280_pressure;Samples;Min_cycle;Max_cycle;Signal;HPM_P1;HPM_P2
2024/01/07 00:00:56;;;;;;;;;;;;;;;;;;4971271;28;89704;-67
2024/01/07 00:03:22;;;;;;;;;;;;;;;;;;4970066;28;89076;-66
2024/01/07 00:05:47;;;;;;;;;;;;;;;;;;4975841;28;90993;-67
2024/01/07 00:08:12;;;;;;;;;;;;;;;;;;4971013;28;89869;-66
2024/01/07 00:10:37;;;;;;;;;;;;;;;;;;4975213;28;89436;-66
2024/01/07 00:13:03;;;;;;;;;;;;;;;;;;4976457;28;89385;-67
2024/01/07 00:15:28;;;;;;;;;;;;;;;;;;4972846;28;89251;-67
2024/01/07 00:17:53;;;;;;;;;;;;;;;;;;4979630;28;89920;-66
2024/01/07 00:20:19;;;;;;;;;;;;;;;;;;5007170;28;90700;-67
2024/01/07 00:22:44;;;;;;;;;;;;;;;;;;4978347;28;89830;-68
2024/01/07 00:25:09;;;;;;;;;;;;;;;;;;4977957;28;90704;-67
2024/01/07 00:27:34;;;;;;;;;;;;;;;;;;4974837;28;90898;-67
2024/01/07 00:29:59;;;;;;;;;;;;;;;;;;4981643;28;90211;-67
2024/01/07 00:32:25;;;;;;;;;;;;;;;;;;4965828;28;89629;-67
2024/01/07 00:34:50;;;;;;;;;;;;;;;;;;4963228;28;92136;-67
2024/01/07 00:37:16;;;;;;;;;;;;;;;;;;4970387;28;89786;-67
2024/01/07 00:39:42;;;;;;;;;;;;;;;;;;4988232;28;90226;-67
2024/01/07 00:42:07;;;;;;;;;;;;;;;;;;4983819;28;89585;-67
2024/01/07 00:44:32;;;;;;;;;;;;;;;;;;4984368;28;89582;-67
2024/01/07 00:46:57;;;;;;;;;;;;;;;;;;4984121;28;89329;-67
2024/01/07 00:49:22;;;;;;;;;;;;;;;;;;4984128;28;89434;-67
2024/01/07 00:51:48;;;;;;;;;;;;;;;;;;4983668;28;89438;-67
2024/01/07 00:54:13;;;;;;;;;;;;;;;;;;4983904;28;89113;-67
2024/01/07 00:56:38;;;;;;;;;;;;;;;;;;4983633;28;89533;-66
2024/01/07 00:59:03;;;;;;;;;;;;;;;;;;4984303;28;89630;-67
2024/01/07 01:01:29;;;;;;;;;;;;;;;;;;4974640;28;90016;-67
2024/01/07 01:03:54;;;;;;;;;;;;;;;;;;4965003;28;90961;-66
2024/01/07 01:06:19;;;;;;;;;;;;;;;;;;4964441;28;89435;-67
2024/01/07 01:08:44;;;;;;;;;;;;;;;;;;4965238;28;89697;-67
2024/01/07 01:11:10;;;;;;;;;;;;;;;;;;4964745;28;89828;-67
2024/01/07 01:13:35;;;;;;;;;;;;;;;;;;4963814;28;90225;-67
2024/01/07 01:16:00;;;;;;;;;;;;;;;;;;4967066;28;89393;-67
2024/01/07 01:18:25;;;;;;;;;;;;;;;;;;4967541;28;89710;-67
2024/01/07 01:20:51;;;;;;;;;;;;;;;;;;4967144;28;89744;-67
2024/01/07 01:23:16;;;;;;;;;;;;;;;;;;4985631;28;89019;-67
2024/01/07 01:25:41;;;;;;;;;;;;;;;;;;4987072;28;90721;-67
2024/01/07 01:28:06;;;;;;;;;;;;;;;;;;4987058;28;90394;-67
2024/01/07 01:30:31;;;;;;;;;;;;;;;;;;4986061;28;91556;-66
2024/01/07 01:32:57;;;;;;;;;;;;;;;;;;4986899;28;89763;-67
2024/01/07 01:35:22;;;;;;;;;;;;;;;;;;4986767;28;90469;-66
2024/01/07 01:37:47;;;;;;;;;;;;;;;;;;4985061;28;90934;-67
2024/01/07 01:40:13;;;;;;;;;;;;;;;;;;4986779;28;89801;-67
2024/01/07 01:42:38;;;;;;;;;;;;;;;;;;4986616;28;89546;-67
2024/01/07 01:45:06;;;;;;;;;;;;;;;;;;4989628;28;89539;-66
2024/01/07 01:47:31;;;;;;;;;;;;;;;;;;4986915;28;89078;-67
2024/01/07 01:49:57;;;;;;;;;;;;;;;;;;4986418;28;89954;-67
2024/01/07 01:52:22;;;;;;;;;;;;;;;;;;4986308;28;89526;-67
2024/01/07 01:54:48;;;;;;;;;;;;;;;;;;4986792;28;90151;-67
2024/01/07 01:57:15;;;;;;;;;;;;;;;;;;4986214;28;91692;-67
2024/01/07 01:59:42;;;;;;;;;;;;;;;;;;4986943;28;90439;-67
2024/01/07 02:02:07;;;;;;;;;;;;;;;;;;4985458;28;90248;-67
2024/01/07 02:04:33;;;;;;;;;;;;;;;;;;4989629;28;89698;-66
2024/01/07 02:06:58;;;;;;;;;;;;;;;;;;4986082;28;89300;-67
2024/01/07 02:09:23;;;;;;;;;;;;;;;;;;4985807;28;89475;-66
2024/01/07 02:12:00;;;;;;;;;;;;;;;;;;4986602;28;89928;-67
2024/01/07 02:14:25;;;;;;;;;;;;;;;;;;4985211;28;90399;-67
2024/01/07 02:16:50;;;;;;;;;;;;;;;;;;4979506;28;90025;-67
2024/01/07 02:19:16;;;;;;;;;;;;;;;;;;4966139;28;89347;-66
2024/01/07 02:21:41;;;;;;;;;;;;;;;;;;4966268;28;89631;-67
2024/01/07 02:24:06;;;;;;;;;;;;;;;;;;4966126;28;90155;-67
2024/01/07 02:26:32;;;;;;;;;;;;;;;;;;4968380;28;89456;-66
2024/01/07 02:28:57;;;;;;;;;;;;;;;;;;4964974;28;89831;-67
2024/01/07 02:31:22;;;;;;;;;;;;;;;;;;4994838;28;90042;-67
2024/01/07 02:33:47;;;;;;;;;;;;;;;;;;5006683;28;89472;-66
2024/01/07 02:36:12;;;;;;;;;;;;;;;;;;5006517;28;90215;-66
2024/01/07 02:38:38;;;;;;;;;;;;;;;;;;5005757;28;89555;-66
2024/01/07 02:41:03;;;;;;;;;;;;;;;;;;5005875;28;89457;-67
2024/01/07 02:43:28;;;;;;;;;;;;;;;;;;5005422;28;91937;-66
2024/01/07 02:45:54;;;;;;;;;;;;;;;;;;5005575;28;89706;-66
2024/01/07 02:48:19;;;;;;;;;;;;;;;;;;5008908;28;89459;-66
2024/01/07 02:50:44;;;;;;;;;;;;;;;;;;5005391;28;89159;-67
2024/01/07 02:53:10;;;;;;;;;;;;;;;;;;5005225;28;89411;-67
2024/01/07 02:55:36;;;;;;;;;;;;;;;;;;4990876;28;89462;-67
2024/01/07 02:58:01;;;;;;;;;;;;;;;;;;4985737;28;89312;-67
2024/01/07 03:00:26;;;;;;;;;;;;;;;;;;4986459;28;89480;-67
2024/01/07 03:02:52;;;;;;;;;;;;;;;;;;4985900;28;89670;-67
2024/01/07 03:05:18;;;;;;;;;;;;;;;;;;4980113;28;89600;-67
2024/01/07 03:07:43;;;;;;;;;;;;;;;;;;4977574;28;89638;-66
2024/01/07 03:10:09;;;;;;;;;;;;;;;;;;4988782;28;89503;-67
2024/01/07 03:12:34;;;;;;;;;;;;;;;;;;4984815;28;89102;-67
2024/01/07 03:14:59;;;;;;;;;;;;;;;;;;4985774;28;89528;-67
2024/01/07 03:17:24;;;;;;;;;;;;;;;;;;4985330;28;89413;-67
2024/01/07 03:19:49;;;;;;;;;;;;;;;;;;4985839;28;89560;-67
2024/01/07 03:22:15;;;;;;;;;;;;;;;;;;4984566;28;89907;-67
2024/01/07 03:24:41;;;;;;;;;;;;;;;;;;4985473;28;90057;-67
2024/01/07 03:27:06;;;;;;;;;;;;;;;;;;4985383;28;90338;-67
2024/01/07 03:29:32;;;;;;;;;;;;;;;;;;4985181;28;90126;-67
2024/01/07 03:31:58;;;;;;;;;;;;;;;;;;4988034;28;89704;-67
2024/01/07 03:34:23;;;;;;;;;;;;;;;;;;4985177;28;89349;-67
2024/01/07 03:36:48;;;;;;;;;;;;;;;;;;4985437;28;89644;-67
2024/01/07 03:39:13;;;;;;;;;;;;;;;;;;4978380;28;89842;-67
2024/01/07 03:41:38;;;;;;;;;;;;;;;;;;4965560;28;90146;-67
2024/01/07 03:44:04;;;;;;;;;;;;;;;;;;4965627;28;89667;-67
2024/01/07 03:46:29;;;;;;;;;;;;;;;;;;4985069;28;89716;-67
2024/01/07 03:48:54;;;;;;;;;;;;;;;;;;4985494;28;89989;-67
2024/01/07 03:51:19;;;;;;;;;;;;;;;;;;4984131;28;91708;-67
2024/01/07 03:53:45;;;;;;;;;;;;;;;;;;4988041;28;89305;-67
2024/01/07 03:56:10;;;;;;;;;;;;;;;;;;4984500;28;89409;-67
2024/01/07 03:58:35;;;;;;;;;;;;;;;;;;4984804;28;89194;-67
2024/01/07 04:01:01;;;;;;;;;;;;;;;;;;4984738;28;90934;-67
2024/01/07 04:03:26;;;;;;;;;;;;;;;;;;4985298;28;89873;-67
2024/01/07 04:05:51;;;;;;;;;;;;;;;;;;4985355;28;89043;-67
2024/01/07 04:08:16;;;;;;;;;;;;;;;;;;4985202;28;90756;-67
2024/01/07 04:10:42;;;;;;;;;;;;;;;;;;4984535;28;89793;-67
2024/01/07 04:13:07;;;;;;;;;;;;;;;;;;4987666;28;89364;-66
2024/01/07 04:15:33;;;;;;;;;;;;;;;;;;4984461;28;89011;-67
2024/01/07 04:18:00;;;;;;;;;;;;;;;;;;4982997;28;90222;-67
2024/01/07 04:20:25;;;;;;;;;;;;;;;;;;4984211;28;90228;-66
2024/01/07 04:22:51;;;;;;;;;;;;;;;;;;5000199;28;89423;-67
2024/01/07 04:25:16;;;;;;;;;;;;;;;;;;5004512;28;89497;-67
2024/01/07 04:27:41;;;;;;;;;;;;;;;;;;5005014;28;90323;-67
2024/01/07 04:30:06;;;;;;;;;;;;;;;;;;5004965;28;89534;-67
2024/01/07 04:32:32;;;;;;;;;;;;;;;;;;5004968;28;89501;-67
2024/01/07 04:34:57;;;;;;;;;;;;;;;;;;5007614;28;89951;-67
2024/01/07 04:37:23;;;;;;;;;;;;;;;;;;5004805;28;89529;-67
2024/01/07 04:39:48;;;;;;;;;;;;;;;;;;5003908;28;89747;-67
2024/01/07 04:42:13;;;;;;;;;;;;;;;;;;5003999;28;89062;-67
2024/01/07 04:44:38;;;;;;;;;;;;;;;;;;5004169;28;89323;-67
2024/01/07 04:47:04;;;;;;;;;;;;;;;;;;5004478;28;89542;-67
2024/01/07 04:49:29;;;;;;;;;;;;;;;;;;5005242;28;90041;-67
2024/01/07 04:51:54;;;;;;;;;;;;;;;;;;5008027;28;90100;-66
2024/01/07 04:54:20;;;;;;;;;;;;;;;;;;5008171;28;90659;-67
2024/01/07 04:56:45;;;;;;;;;;;;;;;;;;5010568;28;90086;-67
2024/01/07 04:59:10;;;;;;;;;;;;;;;;;;4991313;28;89384;-67
2024/01/07 05:01:35;;;;;;;;;;;;;;;;;;4987960;28;89379;-67
2024/01/07 05:04:01;;;;;;;;;;;;;;;;;;4987760;28;89462;-67
2024/01/07 05:06:26;;;;;;;;;;;;;;;;;;4987892;28;90375;-67
2024/01/07 05:08:52;;;;;;;;;;;;;;;;;;4987740;28;89624;-67
2024/01/07 05:11:17;;;;;;;;;;;;;;;;;;4987629;28;89195;-67
2024/01/07 05:13:42;;;;;;;;;;;;;;;;;;4986328;28;90836;-67
2024/01/07 05:16:08;;;;;;;;;;;;;;;;;;4987246;28;89403;-66
2024/01/07 05:18:33;;;;;;;;;;;;;;;;;;4990403;28;89667;-67
2024/01/07 05:20:58;;;;;;;;;;;;;;;;;;4986956;28;89244;-67
2024/01/07 05:23:23;;;;;;;;;;;;;;;;;;4987116;28;89038;-67
2024/01/07 05:25:48;;;;;;;;;;;;;;;;;;4987553;28;90106;-67
2024/01/07 05:28:14;;;;;;;;;;;;;;;;;;4986892;28;89823;-67
2024/01/07 05:30:41;;;;;;;;;;;;;;;;;;4986890;28;89351;-67
2024/01/07 05:33:06;;;;;;;;;;;;;;;;;;4986490;28;89734;-67
2024/01/07 05:35:31;;;;;;;;;;;;;;;;;;4986363;28;89052;-67
2024/01/07 05:37:57;;;;;;;;;;;;;;;;;;4986799;28;89426;-67
2024/01/07 05:40:22;;;;;;;;;;;;;;;;;;4990386;28;89540;-66
2024/01/07 05:42:47;;;;;;;;;;;;;;;;;;4987269;28;89592;-67
2024/01/07 05:45:13;;;;;;;;;;;;;;;;;;4987210;28;89381;-67
2024/01/07 05:47:38;;;;;;;;;;;;;;;;;;4986589;28;89114;-67
2024/01/07 05:50:03;;;;;;;;;;;;;;;;;;4986875;28;89007;-67
2024/01/07 05:52:29;;;;;;;;;;;;;;;;;;4986577;28;89500;-66
2024/01/07 05:54:54;;;;;;;;;;;;;;;;;;4987058;28;89920;-67
2024/01/07 05:57:20;;;;;;;;;;;;;;;;;;4986432;28;89999;-67
2024/01/07 05:59:45;;;;;;;;;;;;;;;;;;4987025;28;90268;-67
2024/01/07 06:02:10;;;;;;;;;;;;;;;;;;4989231;28;89430;-66
2024/01/07 06:04:38;;;;;;;;;;;;;;;;;;4986397;28;90508;-67
2024/01/07 06:07:04;;;;;;;;;;;;;;;;;;4986692;28;89090;-67
2024/01/07 06:09:29;;;;;;;;;;;;;;;;;;4986851;28;89585;-67
2024/01/07 06:11:55;;;;;;;;;;;;;;;;;;4987445;28;89923;-67
2024/01/07 06:14:20;;;;;;;;;;;;;;;;;;4987155;28;90242;-67
2024/01/07 06:16:46;;;;;;;;;;;;;;;;;;4986323;28;89325;-67
2024/01/07 06:19:11;;;;;;;;;;;;;;;;;;4984767;28;89890;-67
2024/01/07 06:21:36;;;;;;;;;;;;;;;;;;5006343;28;89897;-67
2024/01/07 06:24:01;;;;;;;;;;;;;;;;;;5006513;28;89782;-67
2024/01/07 06:26:27;;;;;;;;;;;;;;;;;;5006645;28;89276;-67
2024/01/07 06:28:52;;;;;;;;;;;;;;;;;;5006088;28;89321;-67
2024/01/07 06:31:17;;;;;;;;;;;;;;;;;;5006083;28;89626;-66
2024/01/07 06:33:43;;;;;;;;;;;;;;;;;;5006779;28;89127;-67
2024/01/07 06:36:08;;;;;;;;;;;;;;;;;;5006645;28;89380;-67
2024/01/07 06:38:33;;;;;;;;;;;;;;;;;;5006772;28;89529;-67
2024/01/07 06:41:01;;;;;;;;;;;;;;;;;;5005849;28;90227;-67
2024/01/07 06:43:29;;;;;;;;;;;;;;;;;;5008883;28;89399;-67
2024/01/07 06:45:54;;;;;;;;;;;;;;;;;;5005230;28;89217;-67
2024/01/07 06:48:20;;;;;;;;;;;;;;;;;;5005577;28;89607;-66
2024/01/07 06:50:45;;;;;;;;;;;;;;;;;;4993753;28;90043;-66
2024/01/07 06:53:10;;;;;;;;;;;;;;;;;;4985209;28;90112;-67
2024/01/07 06:55:36;;;;;;;;;;;;;;;;;;4985193;28;89732;-66
2024/01/07 06:58:02;;;;;;;;;;;;;;;;;;4985391;28;90615;-66
2024/01/07 07:00:27;;;;;;;;;;;;;;;;;;4986103;28;89287;-67
2024/01/07 07:02:52;;;;;;;;;;;;;;;;;;4986238;28;89517;-67
2024/01/07 07:05:17;;;;;;;;;;;;;;;;;;4979455;28;89495;-67
2024/01/07 07:07:42;;;;;;;;;;;;;;;;;;4966758;28;89057;-67
2024/01/07 07:10:08;;;;;;;;;;;;;;;;;;4983031;28;89569;-73
2024/01/07 07:12:33;;;;;;;;;;;;;;;;;;4967791;28;93754;-71
2024/01/07 07:14:59;;;;;;;;;;;;;;;;;;4977544;28;90072;-66
2024/01/07 07:17:24;;;;;;;;;;;;;;;;;;4973600;28;90772;-66
2024/01/07 07:19:49;;;;;;;;;;;;;;;;;;4981355;28;89641;-67
2024/01/07 07:22:14;;;;;;;;;;;;;;;;;;4978447;28;88911;-68
2024/01/07 07:24:40;;;;;;;;;;;;;;;;;;4969504;28;90020;-74
2024/01/07 07:27:06;;;;;;;;;;;;;;;;;;4979155;28;89616;-74
2024/01/07 07:29:31;;;;;;;;;;;;;;;;;;4972310;28;91393;-69
2024/01/07 07:31:56;;;;;;;;;;;;;;;;;;4980837;28;89968;-69
2024/01/07 07:34:22;;;;;;;;;;;;;;;;;;4980804;28;89956;-69
2024/01/07 07:36:47;;;;;;;;;;;;;;;;;;4977940;28;90009;-69
2024/01/07 07:39:14;;;;;;;;;;;;;;;;;;4983287;28;90155;-69
2024/01/07 07:41:39;;;;;;;;;;;;;;;;;;4977429;28;89225;-68
2024/01/07 07:44:04;;;;;;;;;;;;;;;;;;4973383;28;89565;-69
2024/01/07 07:46:29;;;;;;;;;;;;;;;;;;4968512;28;89319;-69
2024/01/07 07:48:55;;;;;;;;;;;;;;;;;;4977579;28;89976;-69
2024/01/07 07:51:20;;;;;;;;;;;;;;;;;;4973262;28;89342;-69
2024/01/07 07:53:46;;;;;;;;;;;;;;;;;;4975263;28;89967;-69
2024/01/07 07:56:11;;;;;;;;;;;;;;;;;;4975584;28;90677;-69
2024/01/07 07:58:36;;;;;;;;;;;;;;;;;;4972731;28;89885;-69
2024/01/07 08:01:01;;;;;;;;;;;;;;;;;;4973317;28;89643;-69
2024/01/07 08:03:27;;;;;;;;;;;;;;;;;;4973069;28;89993;-69
2024/01/07 08:05:52;;;;;;;;;;;;;;;;;;4973213;28;89379;-69
2024/01/07 08:08:17;;;;;;;;;;;;;;;;;;4974671;28;89408;-69
2024/01/07 08:10:42;;;;;;;;;;;;;;;;;;4974632;28;90052;-69
2024/01/07 08:13:08;;;;;;;;;;;;;;;;;;4969168;28;90883;-70
2024/01/07 08:15:34;;;;;;;;;;;;;;;;;;4977974;28;89671;-69
2024/01/07 08:17:59;;;;;;;;;;;;;;;;;;4972160;28;89363;-69
2024/01/07 08:20:24;;;;;;;;;;;;;;;;;;4972490;28;89618;-69
2024/01/07 08:22:50;;;;;;;;;;;;;;;;;;4971278;28;89753;-69
2024/01/07 08:25:15;;;;;;;;;;;;;;;;;;4978346;28;90069;-69
2024/01/07 08:27:41;;;;;;;;;;;;;;;;;;4974773;28;89537;-69
2024/01/07 08:30:06;;;;;;;;;;;;;;;;;;4977062;28;91064;-69
2024/01/07 08:32:32;;;;;;;;;;;;;;;;;;4972504;28;89069;-66
2024/01/07 08:34:57;;;;;;;;;;;;;;;;;;4974688;28;89497;-69
2024/01/07 08:37:22;;;;;;;;;;;;;;;;;;4978199;28;90430;-69
2024/01/07 08:39:47;;;;;;;;;;;;;;;;;;4976641;28;89201;-69
2024/01/07 08:42:13;;;;;;;;;;;;;;;;;;4978846;28;89361;-69
2024/01/07 08:44:39;;;;;;;;;;;;;;;;;;4978513;28;89052;-69
2024/01/07 08:47:04;;;;;;;;;;;;;;;;;;4978284;28;90481;-68
2024/01/07 08:49:30;;;;;;;;;;;;;;;;;;4980554;28;89832;-69
2024/01/07 08:51:56;;;;;;;;;;;;;;;;;;4979042;28;89501;-67
2024/01/07 08:54:21;;;;;;;;;;;;;;;;;;4976530;28;89655;-68
2024/01/07 08:56:47;;;;;;;;;;;;;;;;;;4977613;28;89447;-68
2024/01/07 08:59:12;;;;;;;;;;;;;;;;;;4977057;28;90288;-68
2024/01/07 09:01:37;;;;;;;;;;;;;;;;;;4977658;28;90175;-69
2024/01/07 09:04:02;;;;;;;;;;;;;;;;;;4976777;28;89690;-68
2024/01/07 09:06:28;;;;;;;;;;;;;;;;;;4978295;28;89582;-69
2024/01/07 09:08:54;;;;;;;;;;;;;;;;;;4978293;28;89525;-69
2024/01/07 09:11:19;;;;;;;;;;;;;;;;;;4971739;28;90606;-69
2024/01/07 09:13:48;;;;;;;;;;;;;;;;;;4979069;28;89986;-69
2024/01/07 09:16:13;;;;;;;;;;;;;;;;;;4975752;28;90122;-69
2024/01/07 09:18:38;;;;;;;;;;;;;;;;;;4975191;28;89460;-69
2024/01/07 09:21:03;;;;;;;;;;;;;;;;;;4974257;28;89503;-69
2024/01/07 09:23:29;;;;;;;;;;;;;;;;;;4975719;28;90088;-69
2024/01/07 09:25:54;;;;;;;;;;;;;;;;;;4975856;28;89475;-69
2024/01/07 09:28:19;;;;;;;;;;;;;;;;;;4975988;28;89460;-69
2024/01/07 09:30:44;;;;;;;;;;;;;;;;;;4976254;28;89893;-69
2024/01/07 09:33:10;;;;;;;;;;;;;;;;;;4976438;28;89658;-69
2024/01/07 09:35:35;;;;;;;;;;;;;;;;;;4979721;28;90926;-69
2024/01/07 09:38:00;;;;;;;;;;;;;;;;;;4978067;28;89634;-69
2024/01/07 09:40:25;;;;;;;;;;;;;;;;;;4969391;28;90420;-76
2024/01/07 09:42:51;;;;;;;;;;;;;;;;;;4975986;28;89222;-70
2024/01/07 09:45:18;;;;;;;;;;;;;;;;;;4976921;28;89627;-69
2024/01/07 09:47:44;;;;;;;;;;;;;;;;;;4981805;28;89259;-70
2024/01/07 09:50:10;;;;;;;;;;;;;;;;;;4980443;28;91849;-70
2024/01/07 09:52:37;;;;;;;;;;;;;;;;;;4982468;28;90149;-70
2024/01/07 09:55:03;;;;;;;;;;;;;;;;;;4980882;28;90246;-70
2024/01/07 09:57:29;;;;;;;;;;;;;;;;;;4982983;28;89708;-69
2024/01/07 09:59:54;;;;;;;;;;;;;;;;;;4974642;28;90809;-69
2024/01/07 10:02:20;;;;;;;;;;;;;;;;;;4983368;28;89677;-70
2024/01/07 10:04:48;;;;;;;;;;;;;;;;;;4972285;28;89441;-70
2024/01/07 10:07:13;;;;;;;;;;;;;;;;;;4980129;28;89375;-68
2024/01/07 10:09:40;;;;;;;;;;;;;;;;;;4980571;28;90307;-68
2024/01/07 10:12:06;;;;;;;;;;;;;;;;;;4982647;28;89694;-68
2024/01/07 10:14:31;;;;;;;;;;;;;;;;;;4977859;28;89933;-67
2024/01/07 10:16:58;;;;;;;;;;;;;;;;;;4984980;28;89834;-71
2024/01/07 10:19:24;;;;;;;;;;;;;;;;;;4980984;28;90764;-68
2024/01/07 10:22:05;;;;;;;;;;;;;;;;;;4968933;28;89139;-68
2024/01/07 10:24:39;;;;;;;;;;;;;;;;;;4979728;28;89440;-69
2024/01/07 10:27:05;;;;;;;;;;;;;;;;;;4973639;28;89873;-70
2024/01/07 10:29:30;;;;;;;;;;;;;;;;;;4978470;28;90070;-69
2024/01/07 10:32:04;;;;;;;;;;;;;;;;;;4974463;28;89745;-68
2024/01/07 10:34:34;;;;;;;;;;;;;;;;;;4973958;28;89675;-67
2024/01/07 10:37:00;;;;;;;;;;;;;;;;;;4976461;28;89791;-67
2024/01/07 10:39:25;;;;;;;;;;;;;;;;;;4979245;28;90005;-67
2024/01/07 10:41:53;;;;;;;;;;;;;;;;;;4975584;28;90274;-67
2024/01/07 10:44:19;;;;;;;;;;;;;;;;;;4974515;28;89309;-71
2024/01/07 10:46:45;;;;;;;;;;;;;;;;;;4975263;28;90672;-69
2024/01/07 10:49:19;;;;;;;;;;;;;;;;;;4975997;28;89800;-71
2024/01/07 10:51:45;;;;;;;;;;;;;;;;;;4979331;28;89486;-68
2024/01/07 10:54:12;;;;;;;;;;;;;;;;;;4977844;28;89215;-71
2024/01/07 10:56:42;;;;;;;;;;;;;;;;;;4976996;28;90344;-68
2024/01/07 10:59:08;;;;;;;;;;;;;;;;;;4978801;28;91936;-68
2024/01/07 11:01:34;;;;;;;;;;;;;;;;;;4982270;28;89428;-67
2024/01/07 11:04:03;;;;;;;;;;;;;;;;;;4978343;28;89089;-67
2024/01/07 11:06:42;;;;;;;;;;;;;;;;;;4978185;28;94028;-69
2024/01/07 11:09:33;;;;;;;;;;;;;;;;;;4978462;28;89131;-69
2024/01/07 11:11:58;;;;;;;;;;;;;;;;;;4976345;28;90483;-67
2024/01/07 11:14:39;;;;;;;;;;;;;;;;;;4980401;28;89395;-67
2024/01/07 11:17:05;;;;;;;;;;;;;;;;;;4971768;28;90259;-67
2024/01/07 11:19:30;;;;;;;;;;;;;;;;;;4974070;28;89707;-68
2024/01/07 11:22:14;;;;;;;;;;;;;;;;;;4975603;28;90959;-68
2024/01/07 11:24:40;;;;;;;;;;;;;;;;;;4978388;28;89481;-67
2024/01/07 11:27:08;;;;;;;;;;;;;;;;;;4975871;28;90880;-69
2024/01/07 11:29:33;;;;;;;;;;;;;;;;;;4975090;28;90069;-69
2024/01/07 11:31:58;;;;;;;;;;;;;;;;;;4983027;28;89934;-67
2024/01/07 11:34:49;;;;;;;;;;;;;;;;;;4976499;28;89227;-68
2024/01/07 11:37:14;;;;;;;;;;;;;;;;;;4977931;28;89271;-69
2024/01/07 11:39:44;;;;;;;;;;;;;;;;;;4976784;28;89063;-67
2024/01/07 11:42:09;;;;;;;;;;;;;;;;;;4977182;28;90692;-67
2024/01/07 11:44:37;;;;;;;;;;;;;;;;;;4966594;28;90425;-67
2024/01/07 11:47:02;;;;;;;;;;;;;;;;;;4978834;28;90291;-68
2024/01/07 11:49:27;;;;;;;;;;;;;;;;;;4972013;28;90405;-68
2024/01/07 11:51:53;;;;;;;;;;;;;;;;;;4979959;28;89111;-68
2024/01/07 11:54:18;;;;;;;;;;;;;;;;;;4985573;28;89651;-67
2024/01/07 11:56:44;;;;;;;;;;;;;;;;;;4977422;28;90661;-67
2024/01/07 11:59:09;;;;;;;;;;;;;;;;;;4967098;28;89669;-67
2024/01/07 12:01:34;;;;;;;;;;;;;;;;;;4965830;28;89744;-67
2024/01/07 12:03:59;;;;;;;;;;;;;;;;;;4965933;28;89658;-67
2024/01/07 12:06:24;;;;;;;;;;;;;;;;;;4977603;28;89896;-67
2024/01/07 12:08:50;;;;;;;;;;;;;;;;;;5003240;28;89529;-67
2024/01/07 12:11:15;;;;;;;;;;;;;;;;;;5006939;28;89031;-67
2024/01/07 12:13:41;;;;;;;;;;;;;;;;;;5006701;28;89526;-67
2024/01/07 12:16:07;;;;;;;;;;;;;;;;;;5005341;28;90245;-69
2024/01/07 12:18:33;;;;;;;;;;;;;;;;;;5006663;28;90519;-67
2024/01/07 12:20:59;;;;;;;;;;;;;;;;;;5007274;28;89634;-67
2024/01/07 12:23:25;;;;;;;;;;;;;;;;;;5006282;28;89577;-67
2024/01/07 12:25:50;;;;;;;;;;;;;;;;;;5006518;28;89527;-67
2024/01/07 12:28:16;;;;;;;;;;;;;;;;;;5008851;28;90093;-67
2024/01/07 12:30:41;;;;;;;;;;;;;;;;;;5006496;28;89621;-67
2024/01/07 12:33:07;;;;;;;;;;;;;;;;;;5006502;28;90252;-68
2024/01/07 12:35:32;;;;;;;;;;;;;;;;;;5006469;28;89351;-68
2024/01/07 12:37:59;;;;;;;;;;;;;;;;;;5006319;28;89038;-67
2024/01/07 12:40:26;;;;;;;;;;;;;;;;;;5006030;28;89499;-68
2024/01/07 12:42:52;;;;;;;;;;;;;;;;;;5006104;28;89590;-68
2024/01/07 12:45:17;;;;;;;;;;;;;;;;;;5006434;28;89036;-69
2024/01/07 12:47:42;;;;;;;;;;;;;;;;;;5006323;28;89546;-67
2024/01/07 12:50:09;;;;;;;;;;;;;;;;;;5003153;28;89322;-68
2024/01/07 12:52:35;;;;;;;;;;;;;;;;;;4984363;28;92711;-67
2024/01/07 12:55:01;;;;;;;;;;;;;;;;;;4985387;28;91768;-67
2024/01/07 12:57:26;;;;;;;;;;;;;;;;;;4986560;28;88966;-67
2024/01/07 12:59:51;;;;;;;;;;;;;;;;;;4986393;28;89616;-68
2024/01/07 13:02:16;;;;;;;;;;;;;;;;;;4986297;28;89639;-67
2024/01/07 13:04:42;;;;;;;;;;;;;;;;;;4984722;28;90753;-67
2024/01/07 13:07:07;;;;;;;;;;;;;;;;;;4986224;28;89702;-68
2024/01/07 13:09:32;;;;;;;;;;;;;;;;;;4986481;28;89078;-67
2024/01/07 13:11:58;;;;;;;;;;;;;;;;;;4992078;28;89030;-67
2024/01/07 13:14:24;;;;;;;;;;;;;;;;;;4989394;28;89138;-67
2024/01/07 13:16:49;;;;;;;;;;;;;;;;;;4987562;28;89915;-67
2024/01/07 13:19:14;;;;;;;;;;;;;;;;;;4989339;28;89515;-67
2024/01/07 13:21:39;;;;;;;;;;;;;;;;;;4989380;28;89498;-67
2024/01/07 13:24:05;;;;;;;;;;;;;;;;;;4989541;28;89100;-67
2024/01/07 13:26:30;;;;;;;;;;;;;;;;;;4989769;28;90393;-67
2024/01/07 13:28:55;;;;;;;;;;;;;;;;;;4989022;28;89658;-67
2024/01/07 13:31:20;;;;;;;;;;;;;;;;;;4989096;28;89384;-67
2024/01/07 13:33:46;;;;;;;;;;;;;;;;;;4992382;28;89780;-66
2024/01/07 13:36:12;;;;;;;;;;;;;;;;;;4988732;28;89623;-67
2024/01/07 13:38:41;;;;;;;;;;;;;;;;;;4987226;28;92819;-67
2024/01/07 13:41:07;;;;;;;;;;;;;;;;;;4988589;28;90312;-67
2024/01/07 13:43:33;;;;;;;;;;;;;;;;;;4989107;28;89537;-66
2024/01/07 13:45:58;;;;;;;;;;;;;;;;;;4988826;28;89486;-67
2024/01/07 13:48:23;;;;;;;;;;;;;;;;;;4987279;28;89248;-67
2024/01/07 13:50:49;;;;;;;;;;;;;;;;;;4988633;28;89014;-67
2024/01/07 13:53:14;;;;;;;;;;;;;;;;;;4988772;28;89454;-67
2024/01/07 13:55:40;;;;;;;;;;;;;;;;;;4991655;28;89890;-67
2024/01/07 13:58:05;;;;;;;;;;;;;;;;;;4988880;28;89656;-67
2024/01/07 14:00:30;;;;;;;;;;;;;;;;;;4986730;28;89646;-67
2024/01/07 14:02:56;;;;;;;;;;;;;;;;;;5003907;28;89923;-67
2024/01/07 14:05:21;;;;;;;;;;;;;;;;;;4986938;28;90771;-67
2024/01/07 14:07:46;;;;;;;;;;;;;;;;;;4988390;28;89306;-67
2024/01/07 14:10:11;;;;;;;;;;;;;;;;;;4988662;28;89386;-67
2024/01/07 14:12:37;;;;;;;;;;;;;;;;;;4988582;28;89587;-67
2024/01/07 14:15:02;;;;;;;;;;;;;;;;;;4988278;28;90373;-66
2024/01/07 14:17:28;;;;;;;;;;;;;;;;;;4991100;28;89111;-67
2024/01/07 14:19:53;;;;;;;;;;;;;;;;;;4987798;28;89428;-67
2024/01/07 14:22:21;;;;;;;;;;;;;;;;;;4985526;28;89513;-67
2024/01/07 14:24:47;;;;;;;;;;;;;;;;;;4988087;28;90831;-67
2024/01/07 14:27:12;;;;;;;;;;;;;;;;;;4987978;28;90256;-67
2024/01/07 14:29:38;;;;;;;;;;;;;;;;;;4987794;28;90820;-67
2024/01/07 14:32:04;;;;;;;;;;;;;;;;;;4988494;28;91060;-67
2024/01/07 14:34:30;;;;;;;;;;;;;;;;;;4988101;28;90020;-67
2024/01/07 14:36:55;;;;;;;;;;;;;;;;;;4990879;28;89197;-67
2024/01/07 14:39:20;;;;;;;;;;;;;;;;;;4988019;28;89655;-67
2024/01/07 14:41:46;;;;;;;;;;;;;;;;;;4988079;28;89020;-67
2024/01/07 14:44:12;;;;;;;;;;;;;;;;;;4986827;28;92233;-68
2024/01/07 14:46:37;;;;;;;;;;;;;;;;;;4987997;28;90313;-67
2024/01/07 14:49:04;;;;;;;;;;;;;;;;;;4988099;28;89692;-67
2024/01/07 14:51:30;;;;;;;;;;;;;;;;;;4988074;28;90530;-68
2024/01/07 14:53:55;;;;;;;;;;;;;;;;;;4987648;28;90079;-67
2024/01/07 14:56:21;;;;;;;;;;;;;;;;;;4988217;28;89748;-67
2024/01/07 14:58:46;;;;;;;;;;;;;;;;;;4990038;28;89574;-66
2024/01/07 15:01:12;;;;;;;;;;;;;;;;;;4988095;28;89521;-66
2024/01/07 15:03:38;;;;;;;;;;;;;;;;;;4988111;28;90071;-67
2024/01/07 15:06:03;;;;;;;;;;;;;;;;;;4987225;28;89482;-67
2024/01/07 15:08:28;;;;;;;;;;;;;;;;;;4987777;28;89133;-66
2024/01/07 15:10:53;;;;;;;;;;;;;;;;;;4987889;28;89557;-67
2024/01/07 15:13:18;;;;;;;;;;;;;;;;;;4987368;28;89380;-67
2024/01/07 15:15:44;;;;;;;;;;;;;;;;;;4987251;28;89456;-66
2024/01/07 15:18:09;;;;;;;;;;;;;;;;;;4987628;28;89695;-67
2024/01/07 15:20:34;;;;;;;;;;;;;;;;;;4990448;28;89435;-67
2024/01/07 15:22:59;;;;;;;;;;;;;;;;;;4987774;28;90305;-67
2024/01/07 15:25:25;;;;;;;;;;;;;;;;;;4987344;28;89317;-66
2024/01/07 15:27:51;;;;;;;;;;;;;;;;;;4987328;28;89550;-67
2024/01/07 15:30:16;;;;;;;;;;;;;;;;;;4987347;28;89591;-67
2024/01/07 15:32:42;;;;;;;;;;;;;;;;;;4986660;28;89471;-67
2024/01/07 15:35:08;;;;;;;;;;;;;;;;;;4987503;28;89072;-67
2024/01/07 15:37:34;;;;;;;;;;;;;;;;;;4986999;28;89566;-67
2024/01/07 15:39:59;;;;;;;;;;;;;;;;;;4986899;28;89065;-67
2024/01/07 15:42:25;;;;;;;;;;;;;;;;;;4989829;28;89524;-66
2024/01/07 15:44:50;;;;;;;;;;;;;;;;;;4986759;28;89170;-66
2024/01/07 15:47:16;;;;;;;;;;;;;;;;;;4986788;28;89568;-66
2024/01/07 15:49:41;;;;;;;;;;;;;;;;;;4986785;28;89529;-67
2024/01/07 15:52:06;;;;;;;;;;;;;;;;;;4986232;28;89183;-67
2024/01/07 15:54:32;;;;;;;;;;;;;;;;;;4986983;28;89348;-67
2024/01/07 15:56:57;;;;;;;;;;;;;;;;;;4986700;28;90037;-66
2024/01/07 15:59:22;;;;;;;;;;;;;;;;;;4987690;28;89844;-66
2024/01/07 16:01:48;;;;;;;;;;;;;;;;;;5004264;28;89433;-66
2024/01/07 16:04:16;;;;;;;;;;;;;;;;;;5005602;28;89044;-67
2024/01/07 16:06:42;;;;;;;;;;;;;;;;;;4985372;28;91245;-67
2024/01/07 16:09:08;;;;;;;;;;;;;;;;;;4986852;28;89369;-67
2024/01/07 16:11:33;;;;;;;;;;;;;;;;;;4986643;28;89180;-67
2024/01/07 16:13:58;;;;;;;;;;;;;;;;;;4986606;28;89320;-67
2024/01/07 16:16:24;;;;;;;;;;;;;;;;;;4985283;28;89948;-67
2024/01/07 16:18:49;;;;;;;;;;;;;;;;;;4986280;28;89662;-67
2024/01/07 16:21:15;;;;;;;;;;;;;;;;;;4986273;28;89050;-68
2024/01/07 16:23:40;;;;;;;;;;;;;;;;;;4987215;28;89774;-66
2024/01/07 16:26:06;;;;;;;;;;;;;;;;;;4989247;28;89503;-67
2024/01/07 16:28:31;;;;;;;;;;;;;;;;;;4986217;28;89439;-67
2024/01/07 16:30:56;;;;;;;;;;;;;;;;;;4985950;28;89427;-67
2024/01/07 16:33:21;;;;;;;;;;;;;;;;;;4986246;28;88978;-67
2024/01/07 16:35:46;;;;;;;;;;;;;;;;;;4986452;28;89404;-67